createdAt,value
2023-05-03T00:03:55.709Z,30.97
2023-05-03T00:08:57.152Z,30.82
2023-05-03T00:13:58.541Z,30.85
2023-05-03T00:18:59.916Z,30.70
2023-05-03T00:24:01.291Z,30.56
2023-05-03T00:29:02.702Z,30.54
2023-05-03T00:34:04.110Z,30.62
2023-05-03T00:39:05.505Z,30.41
2023-05-03T00:44:06.958Z,30.24
2023-05-03T00:49:09.408Z,30.37
2023-05-03T00:54:10.840Z,30.47
2023-05-03T00:59:12.353Z,30.28
2023-05-03T01:04:13.739Z,30.37
2023-05-03T01:09:24.178Z,30.21
2023-05-03T01:14:32.922Z,30.40
2023-05-03T01:19:36.203Z,30.33
2023-05-03T01:24:38.626Z,30.43
2023-05-03T01:29:40.036Z,30.18
2023-05-03T01:35:13.313Z,30.25
2023-05-03T01:40:16.775Z,30.07
2023-05-03T01:45:18.471Z,29.80
2023-05-03T01:50:19.890Z,29.86
2023-05-03T01:55:21.301Z,29.50
2023-05-03T02:00:22.707Z,29.13
2023-05-03T02:05:24.098Z,28.63
2023-05-03T02:10:25.586Z,28.34
2023-05-03T02:15:27.011Z,28.29
2023-05-03T02:20:28.730Z,27.99
2023-05-03T02:25:30.214Z,28.04
2023-05-03T02:30:31.939Z,27.64
2023-05-03T02:35:33.649Z,27.98
2023-05-03T02:40:35.066Z,27.68
2023-05-03T02:45:36.744Z,27.44
2023-05-03T02:50:38.871Z,27.85
2023-05-03T02:55:40.261Z,27.76
2023-05-03T03:00:41.735Z,27.59
2023-05-03T03:05:43.110Z,27.89
2023-05-03T03:10:44.498Z,27.80
2023-05-03T03:15:46.151Z,27.93
2023-05-03T03:20:47.619Z,27.79
2023-05-03T03:25:49.000Z,27.78
2023-05-03T03:30:50.477Z,27.77
2023-05-03T03:35:51.882Z,27.86
2023-05-03T03:40:54.301Z,27.79
2023-05-03T03:45:55.685Z,27.90
2023-05-03T03:50:57.119Z,27.29
2023-05-03T03:55:58.499Z,27.68
2023-05-03T04:01:00.618Z,27.47
2023-05-03T04:06:02.029Z,27.59
2023-05-03T04:11:03.569Z,27.46
2023-05-03T04:16:06.443Z,27.53
2023-05-03T04:21:08.019Z,27.21
2023-05-03T04:26:17.064Z,26.97
2023-05-03T04:31:25.360Z,27.16
2023-05-03T04:36:29.683Z,26.94
2023-05-03T04:41:31.418Z,26.89
2023-05-03T04:46:32.846Z,26.95
2023-05-03T04:51:34.249Z,26.98
2023-05-03T04:56:35.927Z,26.83
2023-05-03T05:01:37.342Z,26.72
2023-05-03T05:06:38.895Z,26.72
2023-05-03T05:11:40.360Z,26.68
2023-05-03T05:16:41.817Z,26.54
2023-05-03T05:21:43.288Z,26.47
2023-05-03T05:26:44.705Z,26.49
2023-05-03T05:31:46.357Z,26.36
2023-05-03T05:36:47.873Z,26.28
2023-05-03T05:41:49.462Z,26.38
2023-05-03T05:46:50.988Z,26.12
2023-05-03T05:51:52.400Z,25.88
2023-05-03T05:56:53.789Z,26.16
2023-05-03T06:01:55.316Z,25.84
2023-05-03T06:06:56.782Z,25.95
2023-05-03T06:11:58.170Z,26.01
2023-05-03T06:17:00.606Z,26.02
2023-05-03T06:22:02.401Z,26.13
2023-05-03T06:27:03.946Z,26.45
2023-05-03T06:32:05.637Z,26.68
2023-05-03T06:37:07.009Z,26.67
2023-05-03T06:42:08.395Z,26.61
2023-05-03T06:47:09.830Z,26.70
2023-05-03T06:52:11.790Z,26.61
2023-05-03T06:57:13.493Z,26.71
2023-05-03T07:02:15.034Z,26.45
2023-05-03T07:07:16.694Z,26.33
2023-05-03T07:12:18.169Z,25.95
2023-05-03T07:17:19.585Z,26.11
2023-05-03T07:22:24.518Z,25.90
2023-05-03T07:27:26.661Z,25.79
2023-05-03T07:32:28.120Z,25.66
2023-05-03T07:37:29.536Z,25.25
2023-05-03T07:42:31.156Z,24.89
2023-05-03T07:47:35.228Z,25.11
2023-05-03T07:52:37.111Z,25.32
2023-05-03T07:57:38.493Z,25.06
2023-05-03T08:02:40.117Z,25.19
2023-05-03T08:07:41.978Z,25.32
2023-05-03T08:12:43.476Z,25.17
2023-05-03T08:17:45.276Z,25.07
2023-05-03T08:22:47.108Z,25.16
2023-05-03T08:27:49.151Z,25.06
2023-05-03T08:32:51.399Z,24.97
2023-05-03T08:37:52.899Z,24.43
2023-05-03T08:42:55.222Z,24.89
2023-05-03T08:47:56.682Z,25.09
2023-05-03T08:52:58.899Z,24.29
2023-05-03T08:58:00.549Z,24.43
2023-05-03T09:03:02.180Z,24.23
2023-05-03T09:08:11.033Z,23.83
2023-05-03T09:13:12.423Z,23.85
2023-05-03T09:18:18.629Z,24.10
2023-05-03T09:23:29.604Z,23.86
2023-05-03T09:28:40.549Z,23.92
2023-05-03T09:33:42.150Z,23.85
2023-05-03T09:38:43.839Z,23.60
2023-05-03T09:43:52.158Z,24.03
2023-05-03T09:48:57.180Z,24.16
2023-05-03T09:53:58.774Z,23.84
2023-05-03T09:59:00.184Z,23.93
2023-05-03T10:04:01.614Z,23.93
2023-05-03T10:09:20.618Z,23.55
2023-05-03T10:14:22.044Z,23.45
2023-05-03T10:19:32.152Z,23.74
2023-05-03T10:24:34.420Z,23.92
2023-05-03T10:29:46.007Z,23.65
2023-05-03T10:34:47.451Z,23.99
2023-05-03T10:39:48.839Z,23.83
2023-05-03T10:44:54.025Z,23.90
2023-05-03T10:50:24.794Z,24.07
2023-05-03T10:55:26.638Z,24.18
2023-05-03T11:00:37.393Z,23.92
2023-05-03T11:05:38.959Z,23.87
2023-05-03T11:10:40.690Z,23.92
2023-05-03T11:15:42.235Z,24.13
2023-05-03T11:20:43.687Z,24.27
2023-05-03T11:25:45.062Z,23.91
2023-05-03T11:30:46.495Z,24.17
2023-05-03T11:35:47.925Z,23.96
2023-05-03T11:40:49.310Z,23.80
2023-05-03T11:45:50.772Z,23.62
2023-05-03T11:50:55.608Z,23.65
2023-05-03T11:55:57.085Z,23.81
2023-05-03T12:00:58.472Z,23.79
2023-05-03T12:06:00.652Z,23.77
2023-05-03T12:11:06.330Z,24.24
2023-05-03T12:26:22.488Z,24.80
2023-05-03T12:31:24.350Z,24.45
2023-05-03T12:36:26.474Z,24.62
2023-05-03T12:41:52.695Z,24.60
2023-05-03T12:46:53.398Z,24.76
2023-05-03T12:52:22.634Z,24.45
2023-05-03T12:57:23.688Z,24.70
2023-05-03T13:07:31.778Z,24.30
2023-05-03T13:12:36.231Z,23.89
2023-05-03T13:17:37.759Z,23.88
2023-05-03T13:22:39.211Z,23.81
2023-05-03T13:27:41.057Z,23.78
2023-05-03T13:32:42.511Z,23.86
2023-05-03T13:37:44.361Z,23.80
2023-05-03T13:42:45.751Z,23.56
2023-05-03T13:48:10.491Z,23.60
2023-05-03T13:53:08.464Z,23.34
2023-05-03T13:58:09.864Z,23.34
2023-05-03T14:03:11.950Z,23.14
2023-05-03T14:08:13.557Z,23.61
2023-05-03T14:13:14.993Z,23.57
2023-05-03T14:18:16.531Z,23.48
2023-05-03T14:23:17.980Z,23.52
2023-05-03T14:28:19.492Z,23.78
2023-05-03T14:33:21.211Z,23.80
2023-05-03T14:38:22.669Z,23.86
2023-05-03T14:43:24.057Z,23.70
2023-05-03T14:48:25.713Z,23.99
2023-05-03T14:53:27.143Z,24.05
2023-05-03T14:58:28.548Z,24.00
2023-05-03T15:03:30.452Z,24.05
2023-05-03T15:08:32.012Z,23.93
2023-05-03T15:13:34.030Z,24.25
2023-05-03T15:18:36.009Z,24.30
2023-05-03T15:23:37.378Z,24.09
2023-05-03T15:28:38.770Z,24.04
2023-05-03T15:33:41.639Z,24.24
2023-05-03T15:38:43.047Z,24.14
2023-05-03T15:43:47.175Z,24.18
2023-05-03T15:48:48.556Z,24.00
2023-05-03T15:53:49.930Z,23.87
2023-05-03T15:58:51.461Z,24.33
2023-05-03T16:03:52.880Z,24.04
2023-05-03T16:08:54.254Z,24.11
2023-05-03T16:13:55.632Z,24.36
2023-05-03T16:18:57.184Z,24.44
2023-05-03T16:23:58.787Z,24.29
2023-05-03T16:29:00.822Z,24.40
2023-05-03T16:34:02.610Z,24.35
2023-05-03T16:39:04.330Z,24.51
2023-05-03T16:44:06.141Z,24.56
2023-05-03T16:49:07.542Z,24.59
2023-05-03T16:54:09.034Z,24.51
2023-05-03T16:59:10.493Z,24.52
2023-05-03T17:04:12.231Z,24.77
2023-05-03T17:09:13.895Z,24.66
2023-05-03T17:14:15.382Z,24.81
2023-05-03T17:19:18.003Z,24.86
2023-05-03T17:24:19.526Z,24.65
2023-05-03T17:29:21.468Z,24.92
2023-05-03T17:34:24.775Z,25.19
2023-05-03T17:39:28.189Z,24.92
2023-05-03T17:44:29.575Z,25.10
2023-05-03T17:49:33.860Z,25.21
2023-05-03T17:54:35.458Z,25.18
2023-05-03T17:59:36.855Z,25.21
2023-05-03T18:04:38.222Z,25.02
2023-05-03T18:09:39.594Z,25.30
2023-05-03T18:14:40.975Z,25.33
2023-05-03T18:19:45.809Z,25.46
2023-05-03T18:24:47.230Z,25.42
2023-05-03T18:29:48.803Z,25.54
2023-05-03T18:34:50.299Z,25.63
2023-05-03T18:39:51.697Z,25.57
2023-05-03T18:44:53.480Z,25.74
2023-05-03T18:49:54.870Z,25.74
2023-05-03T18:54:56.448Z,25.53
2023-05-03T19:00:01.205Z,25.91
2023-05-03T19:05:03.060Z,25.80
2023-05-03T19:10:05.041Z,26.19
2023-05-03T19:15:07.110Z,26.11
2023-05-03T19:20:09.933Z,26.10
2023-05-03T19:25:11.357Z,26.53
2023-05-03T19:30:13.008Z,27.00
2023-05-03T19:35:14.641Z,26.81
2023-05-03T19:40:16.047Z,27.01
2023-05-03T19:45:17.459Z,27.24
2023-05-03T19:50:18.834Z,27.29
2023-05-03T19:55:20.380Z,27.57
2023-05-03T20:00:23.079Z,27.55
2023-05-03T20:05:24.467Z,27.42
2023-05-03T20:10:26.006Z,27.93
2023-05-03T20:15:28.330Z,28.11
2023-05-03T20:20:30.617Z,28.14
2023-05-03T20:25:32.030Z,28.06
2023-05-03T20:30:34.530Z,28.09
2023-05-03T20:35:38.676Z,28.28
2023-05-03T20:40:40.054Z,28.39
2023-05-03T20:45:41.601Z,28.65
2023-05-03T20:50:43.509Z,28.71
2023-05-03T20:55:44.891Z,28.69
2023-05-03T21:00:46.288Z,28.58
2023-05-03T21:05:47.742Z,28.50
2023-05-03T21:10:49.125Z,28.39
2023-05-03T21:15:53.411Z,28.52
2023-05-03T21:20:54.859Z,28.33
2023-05-03T21:25:56.556Z,28.28
2023-05-03T21:30:58.041Z,28.64
2023-05-03T21:36:00.156Z,28.63
2023-05-03T21:41:04.008Z,28.40
2023-05-03T21:46:08.644Z,28.55
2023-05-03T21:51:17.608Z,28.41
2023-05-03T21:56:18.995Z,28.50
2023-05-03T22:01:21.519Z,28.67
2023-05-03T22:06:22.950Z,28.47
2023-05-03T22:11:24.325Z,28.44
2023-05-03T22:16:25.741Z,28.46
2023-05-03T22:21:27.338Z,28.53
2023-05-03T22:26:29.606Z,28.33
2023-05-03T22:31:31.417Z,28.44
2023-05-03T22:36:33.079Z,28.38
2023-05-03T22:41:34.598Z,28.20
2023-05-03T22:46:36.112Z,28.34
2023-05-03T22:51:38.331Z,28.35
2023-05-03T22:56:39.715Z,28.16
2023-05-03T23:01:41.481Z,28.16
2023-05-03T23:06:42.870Z,28.12
2023-05-03T23:11:44.246Z,28.18
2023-05-03T23:16:46.374Z,28.18
2023-05-03T23:21:48.042Z,28.05
2023-05-03T23:26:49.446Z,28.18
2023-05-03T23:31:51.325Z,28.11
2023-05-03T23:36:53.521Z,28.02
2023-05-03T23:41:54.934Z,28.06
2023-05-03T23:46:56.304Z,27.98
2023-05-03T23:51:57.701Z,27.92
2023-05-03T23:56:59.516Z,27.84
